Home > Products > Valid Products > MTR

000
SAGM31 PGUM 201555
MTRGUM
METAR PGUM 201554Z 12007KT 10SM FEW015 SCT021 28/25 A2984 RMK AO2
SLP096 T02780250




000
SAGM31 PGUM 201455
MTRGUM
METAR PGUM 201454Z 11008KT 10SM SCT018 SCT027 28/25 A2985 RMK AO2
SLP098 T02780250 58005




000
SAGM31 PGUM 201455
MTRGUM
METAR PGUM 201454Z 11008KT 10SM SCT018 SCT027 28/25 A2985 RMK AO2
SLP098 T02780250 58005





000
SAGM31 PGUM 201435
MTRGUM
SPECI PGUM 201434Z 10009KT 10SM SCT014 SCT021 28/25 A2985 RMK AO2




000
SAGM31 PGUM 201435
MTRGUM
SPECI PGUM 201434Z 10009KT 10SM SCT014 SCT021 28/25 A2985 RMK AO2





000
SAGM31 PGUM 201422
MTRGUM
SPECI PGUM 201421Z 11006KT 10SM BKN014 BKN019 28/25 A2984 RMK AO2




000
SAGM31 PGUM 201422
MTRGUM
SPECI PGUM 201421Z 11006KT 10SM BKN014 BKN019 28/25 A2984 RMK AO2





000
SAGM31 PGUM 201355
MTRGUM
METAR PGUM 201354Z 10006KT 10SM FEW015 28/25 A2985 RMK AO2 SLP101
T02780250 403110272





000
SAGM31 PGUM 201355
MTRGUM
METAR PGUM 201354Z 10006KT 10SM FEW015 28/25 A2985 RMK AO2 SLP101
T02780250 403110272




000
SAGM31 PGUM 201322
MTRGUM
SPECI PGUM 201321Z 10007KT 10SM FEW015 SCT030 28/25 A2986 RMK AO2




000
SAGM31 PGUM 201322
MTRGUM
SPECI PGUM 201321Z 10007KT 10SM FEW015 SCT030 28/25 A2986 RMK AO2





000
SAGM31 PGUM 201305
MTRGUM
SPECI PGUM 201304Z 11007KT 10SM SCT013 BKN019 BKN030 28/25 A2986 RMK
AO2




000
SAGM31 PGUM 201305
MTRGUM
SPECI PGUM 201304Z 11007KT 10SM SCT013 BKN019 BKN030 28/25 A2986 RMK
AO2





000
SAGM31 PGUM 201255
MTRGUM
METAR PGUM 201254Z 10005KT 10SM BKN013 BKN019 OVC032 28/25 A2987 RMK
AO2 SLP105 T02780250




000
SAGM31 PGUM 201221
MTRGUM
SPECI PGUM 201220Z 10008KT 10SM FEW014 BKN022 BKN033 28/25 A2987 RMK
AO2




000
SAGM31 PGUM 201221
MTRGUM
SPECI PGUM 201220Z 10008KT 10SM FEW014 BKN022 BKN033 28/25 A2987 RMK
AO2





000
SAGM31 PGUM 201155
MTRGUM
METAR PGUM 201154Z 10005KT 10SM FEW014 SCT022 SCT027 28/25 A2986 RMK
AO2 SLP103 T02780250 10300 20278 51015





000
SAGM31 PGUM 201155
MTRGUM
METAR PGUM 201154Z 10005KT 10SM FEW014 SCT022 SCT027 28/25 A2986 RMK
AO2 SLP103 T02780250 10300 20278 51015




000
SAGM31 PGUM 201055
MTRGUM
METAR PGUM 201054Z 10007KT 10SM FEW015 28/26 A2985 RMK AO2 SLP099
T02780256




000
SAGM31 PGUM 201055
MTRGUM
METAR PGUM 201054Z 10007KT 10SM FEW015 28/26 A2985 RMK AO2 SLP099
T02780256





000
SAGM31 PGUM 200955
MTRGUM
METAR PGUM 200954Z 09010KT 10SM FEW015 28/25 A2983 RMK AO2 SLP094
T02830250




000
SAGM31 PGUM 200955
MTRGUM
METAR PGUM 200954Z 09010KT 10SM FEW015 28/25 A2983 RMK AO2 SLP094
T02830250





000
SAGM31 PGUM 200924
MTRGUM
SPECI PGUM 200923Z 09009KT 10SM SCT015 SCT020 28/25 A2983 RMK AO2




000
SAGM31 PGUM 200924
MTRGUM
SPECI PGUM 200923Z 09009KT 10SM SCT015 SCT020 28/25 A2983 RMK AO2





000
SAGM31 PGUM 200855
MTRGUM
METAR PGUM 200854Z 09008KT 10SM SCT015 BKN021 28/25 A2982 RMK AO2
SLP088 T02830250 53007




000
SAGM31 PGUM 200855
MTRGUM
METAR PGUM 200854Z 09008KT 10SM SCT015 BKN021 28/25 A2982 RMK AO2
SLP088 T02830250 53007





000
SAGM31 PGUM 200831
MTRGUM
SPECI PGUM 200830Z 09010KT 10SM BKN015 BKN022 29/25 A2981 RMK AO2




000
SAGM31 PGUM 200831
MTRGUM
SPECI PGUM 200830Z 09010KT 10SM BKN015 BKN022 29/25 A2981 RMK AO2





000
SAGM31 PGUM 200755
MTRGUM
METAR PGUM 200754Z 10008KT 10SM SCT015 29/25 A2980 RMK AO2 SLP084
T02890250




000
SAGM31 PGUM 200755
MTRGUM
METAR PGUM 200754Z 10008KT 10SM SCT015 29/25 A2980 RMK AO2 SLP084
T02890250





000
SAGM31 PGUM 200655
MTRGUM
METAR PGUM 200654Z 11009KT 10SM SCT017 29/24 A2979 RMK AO2 SLP079
T02940244




000
SAGM31 PGUM 200655
MTRGUM
METAR PGUM 200654Z 11009KT 10SM SCT017 29/24 A2979 RMK AO2 SLP079
T02940244





000
SAGM31 PGUM 200555
MTRGUM
METAR PGUM 200554Z 11010KT 10SM SCT019 29/24 A2979 RMK AO2 SLP081
T02940244 10311 20294 58005





000
SAGM31 PGUM 200555
MTRGUM
METAR PGUM 200554Z 11010KT 10SM SCT019 29/24 A2979 RMK AO2 SLP081
T02940244 10311 20294 58005




000
SAGM31 PGUM 200506
MTRGUM
SPECI PGUM 200505Z 11011G17KT 10SM SCT019 30/24 A2980 RMK AO2




000
SAGM31 PGUM 200506
MTRGUM
SPECI PGUM 200505Z 11011G17KT 10SM SCT019 30/24 A2980 RMK AO2





000
SAGM31 PGUM 200455
MTRGUM
METAR PGUM 200454Z 11010KT 10SM BKN019 30/24 A2981 RMK AO2 SLP085
T03000244




000
SAGM31 PGUM 200455
MTRGUM
METAR PGUM 200454Z 11010KT 10SM BKN019 30/24 A2981 RMK AO2 SLP085
T03000244





000
SAGM31 PGUM 200442
MTRGUM
SPECI PGUM 200441Z 11012KT 10SM BKN017 29/24 A2980 RMK AO2




000
SAGM31 PGUM 200442
MTRGUM
SPECI PGUM 200441Z 11012KT 10SM BKN017 29/24 A2980 RMK AO2





000
SAGM31 PGUM 200355
MTRGUM
METAR PGUM 200354Z 12009KT 10SM SCT019 31/24 A2981 RMK AO2 SLP085
T03060244




000
SAGM31 PGUM 200355
MTRGUM
METAR PGUM 200354Z 12009KT 10SM SCT019 31/24 A2981 RMK AO2 SLP085
T03060244





000
SAGM31 PGUM 200255
MTRGUM
METAR PGUM 200254Z 10011G15KT 10SM SCT017 BKN025 31/25 A2983 RMK AO2
SLP093 T03060250 58012





000
SAGM31 PGUM 200255
MTRGUM
METAR PGUM 200254Z 10011G15KT 10SM SCT017 BKN025 31/25 A2983 RMK AO2
SLP093 T03060250 58012




000
SAGM31 PGUM 200155
MTRGUM
METAR PGUM 200154Z 12008G16KT 10SM BKN019 BKN029 BKN044 30/26 A2985
RMK AO2 SLP101 T03000256




000
SAGM31 PGUM 200155
MTRGUM
METAR PGUM 200154Z 12008G16KT 10SM BKN019 BKN029 BKN044 30/26 A2985
RMK AO2 SLP101 T03000256





000
SAGM31 PGUM 200055
MTRGUM
METAR PGUM 200054Z 10010KT 10SM BKN017 BKN023 30/25 A2986 RMK AO2
SLP104 T03000250




000
SAGM31 PGUM 200055
MTRGUM
METAR PGUM 200054Z 10010KT 10SM BKN017 BKN023 30/25 A2986 RMK AO2
SLP104 T03000250





000
SAGM31 PGUM 192355
MTRGUM
METAR PGUM 192354Z 12008G16KT 10SM BKN017 29/25 A2986 RMK AO2 SLP105
T02940250 10300 20272 50012




000
SAGM31 PGUM 192347
MTRGUM
SPECI PGUM 192346Z 11010KT 10SM BKN017 30/25 A2987 RMK AO2




000
SAGM31 PGUM 192347
MTRGUM
SPECI PGUM 192346Z 11010KT 10SM BKN017 30/25 A2987 RMK AO2





000
SAGM31 PGUM 192255
MTRGUM
METAR PGUM 192254Z 12006KT 10SM SCT017 29/25 A2987 RMK AO2 SLP107
T02940250




000
SAGM31 PGUM 192255
MTRGUM
METAR PGUM 192254Z 12006KT 10SM SCT017 29/25 A2987 RMK AO2 SLP107
T02940250





000
SAGM31 PGUM 192155
MTRGUM
METAR PGUM 192154Z 13007KT 10SM FEW017 28/25 A2986 RMK AO2 SLP103
T02830250




000
SAGM31 PGUM 192155
MTRGUM
METAR PGUM 192154Z 13007KT 10SM FEW017 28/25 A2986 RMK AO2 SLP103
T02830250





000
SAGM31 PGUM 192055
MTRGUM
METAR PGUM 192054Z 14006KT 10SM FEW018 28/25 A2983 RMK AO2 SLP093
T02780250 53010





000
SAGM31 PGUM 192055
MTRGUM
METAR PGUM 192054Z 14006KT 10SM FEW018 28/25 A2983 RMK AO2 SLP093
T02780250 53010




000
SAGM31 PGUM 191955
MTRGUM
METAR PGUM 191954Z 13004KT 10SM FEW015 27/25 A2982 RMK AO2 SLP088
T02720250




000
SAGM31 PGUM 191955
MTRGUM
METAR PGUM 191954Z 13004KT 10SM FEW015 27/25 A2982 RMK AO2 SLP088
T02720250





000
SAGM31 PGUM 191946
MTRGUM
SPECI PGUM 191945Z 13005KT 10SM SCT015 27/25 A2982 RMK AO2




000
SAGM31 PGUM 191946
MTRGUM
SPECI PGUM 191945Z 13005KT 10SM SCT015 27/25 A2982 RMK AO2





000
SAGM31 PGUM 191920
MTRGUM
SPECI PGUM 191919Z 14007KT 10SM BKN016 27/25 A2981 RMK AO2




000
SAGM31 PGUM 191920
MTRGUM
SPECI PGUM 191919Z 14007KT 10SM BKN016 27/25 A2981 RMK AO2





000
SAGM31 PGUM 191855
MTRGUM
METAR PGUM 191854Z 14006KT 10SM SCT016 27/24 A2981 RMK AO2 SLP087
T02720244




000
SAGM31 PGUM 191855
MTRGUM
METAR PGUM 191854Z 14006KT 10SM SCT016 27/24 A2981 RMK AO2 SLP087
T02720244





000
SAGM31 PGUM 191755
MTRGUM
METAR PGUM 191754Z 13006KT 10SM FEW018 27/24 A2980 RMK AO2 SLP083
T02720244 10278 20272 56005





000
SAGM31 PGUM 191755
MTRGUM
METAR PGUM 191754Z 13006KT 10SM FEW018 27/24 A2980 RMK AO2 SLP083
T02720244 10278 20272 56005




000
SAGM31 PGUM 191655
MTRGUM
METAR PGUM 191654Z 14007KT 10SM FEW015 27/25 A2980 RMK AO2 SLP084
T02720250





000
SAGM31 PGUM 191655
MTRGUM
METAR PGUM 191654Z 14007KT 10SM FEW015 27/25 A2980 RMK AO2 SLP084
T02720250




000
SAGM31 PGUM 191555
MTRGUM
METAR PGUM 191554Z 14007KT 10SM SCT015 SCT023 27/25 A2981 RMK AO2
SLP085 T02720250




000
SAGM31 PGUM 191555
MTRGUM
METAR PGUM 191554Z 14007KT 10SM SCT015 SCT023 27/25 A2981 RMK AO2
SLP085 T02720250





000
SAGM31 PGUM 191548
MTRGUM
SPECI PGUM 191547Z 13005KT 10SM SCT015 BKN025 27/25 A2981 RMK AO2




000
SAGM31 PGUM 191548
MTRGUM
SPECI PGUM 191547Z 13005KT 10SM SCT015 BKN025 27/25 A2981 RMK AO2





000
SAGM31 PGUM 191509
MTRGUM
SPECI PGUM 191508Z 14008KT 10SM FEW018 SCT023 27/25 A2981 RMK AO2




000
SAGM31 PGUM 191509
MTRGUM
SPECI PGUM 191508Z 14008KT 10SM FEW018 SCT023 27/25 A2981 RMK AO2





000
SAGM31 PGUM 191455
MTRGUM
METAR PGUM 191454Z 14008KT 10SM BKN016 27/25 A2981 RMK AO2 SLP088
T02720250 58005





000
SAGM31 PGUM 191455
MTRGUM
METAR PGUM 191454Z 14008KT 10SM BKN016 27/25 A2981 RMK AO2 SLP088
T02720250 58005




000
SAGM31 PGUM 191447
MTRGUM
SPECI PGUM 191446Z 14007KT 10SM SCT016 BKN022 27/25 A2982 RMK AO2




000
SAGM31 PGUM 191447
MTRGUM
SPECI PGUM 191446Z 14007KT 10SM SCT016 BKN022 27/25 A2982 RMK AO2





000
SAGM31 PGUM 191355
MTRGUM
METAR PGUM 191354Z 13007KT 10SM FEW014 28/26 A2982 RMK AO2 SLP091
T02780256 403110261





000
SAGM31 PGUM 191355
MTRGUM
METAR PGUM 191354Z 13007KT 10SM FEW014 28/26 A2982 RMK AO2 SLP091
T02780256 403110261




000
SAGM31 PGUM 191255
MTRGUM
METAR PGUM 191254Z 13006KT 10SM SCT017 SCT024 28/25 A2983 RMK AO2
SLP091 T02780250





000
SAGM31 PGUM 191248
MTRGUM
SPECI PGUM 191247Z 13007KT 10SM SCT017 BKN024 28/25 A2983 RMK AO2




000
SAGM31 PGUM 191155
MTRGUM
METAR PGUM 191154Z 13005KT 10SM FEW016 SCT022 BKN100 27/25 A2983 RMK
AO2 SLP093 70005 T02720250 10289 20272 51015




000
SAGM31 PGUM 191155
MTRGUM
METAR PGUM 191154Z 13005KT 10SM FEW016 SCT022 BKN100 27/25 A2983 RMK
AO2 SLP093 70005 T02720250 10289 20272 51015





000
SAGM31 PGUM 191055
MTRGUM
METAR PGUM 191054Z 13006KT 10SM CLR 28/25 A2982 RMK AO2 SLP090
T02780250




000
SAGM31 PGUM 191055
MTRGUM
METAR PGUM 191054Z 13006KT 10SM CLR 28/25 A2982 RMK AO2 SLP090
T02780250





000
SAGM31 PGUM 191030
MTRGUM
SPECI PGUM 191029Z 13005KT 10SM FEW016 28/25 A2982 RMK AO2




000
SAGM31 PGUM 191030
MTRGUM
SPECI PGUM 191029Z 13005KT 10SM FEW016 28/25 A2982 RMK AO2





000
SAGM31 PGUM 191020
MTRGUM
SPECI PGUM 191019Z 13006KT 10SM SCT016 BKN023 28/25 A2981 RMK AO2




000
SAGM31 PGUM 191020
MTRGUM
SPECI PGUM 191019Z 13006KT 10SM SCT016 BKN023 28/25 A2981 RMK AO2





000
SAGM31 PGUM 191011
MTRGUM
SPECI PGUM 191010Z 14007KT 10SM SCT018 28/25 A2981 RMK AO2




000
SAGM31 PGUM 191011
MTRGUM
SPECI PGUM 191010Z 14007KT 10SM SCT018 28/25 A2981 RMK AO2





000
SAGM31 PGUM 190955
MTRGUM
METAR PGUM 190954Z 13007KT 10SM BKN018 BKN022 28/25 A2980 RMK AO2
SLP084 T02780250





000
SAGM31 PGUM 190955
MTRGUM
METAR PGUM 190954Z 13007KT 10SM BKN018 BKN022 28/25 A2980 RMK AO2
SLP084 T02780250




000
SAGM31 PGUM 190940
MTRGUM
SPECI PGUM 190939Z 12007KT 10SM BKN020 BKN027 28/25 A2980 RMK AO2




000
SAGM31 PGUM 190940
MTRGUM
SPECI PGUM 190939Z 12007KT 10SM BKN020 BKN027 28/25 A2980 RMK AO2





000
SAGM31 PGUM 190855
MTRGUM
METAR PGUM 190854Z 12007KT 10SM FEW017 SCT022 28/25 A2979 RMK AO2
SLP078 T02780250 53013





000
SAGM31 PGUM 190855
MTRGUM
METAR PGUM 190854Z 12007KT 10SM FEW017 SCT022 28/25 A2979 RMK AO2
SLP078 T02780250 53013




000
SAGM31 PGUM 190755
MTRGUM
METAR PGUM 190754Z 12007KT 10SM FEW017 28/25 A2976 RMK AO2 SLP070
T02830250





000
SAGM31 PGUM 190755
MTRGUM
METAR PGUM 190754Z 12007KT 10SM FEW017 28/25 A2976 RMK AO2 SLP070
T02830250




000
SAGM31 PGUM 190655
MTRGUM
METAR PGUM 190654Z 12010G14KT 10SM SCT015 29/26 A2975 RMK AO2 SLP066
T02890256




000
SAGM31 PGUM 190655
MTRGUM
METAR PGUM 190654Z 12010G14KT 10SM SCT015 29/26 A2975 RMK AO2 SLP066
T02890256





000
SAGM31 PGUM 190638
MTRGUM
SPECI PGUM 190637Z 12007G16KT 10SM BKN015 BKN022 29/26 A2975 RMK AO2




000
SAGM31 PGUM 190638
MTRGUM
SPECI PGUM 190637Z 12007G16KT 10SM BKN015 BKN022 29/26 A2975 RMK AO2





000
SAGM31 PGUM 190555
MTRGUM
METAR PGUM 190554Z 14006KT 10SM FEW019 SCT033 28/26 A2975 RMK AO2
RAB30E51 SLP065 P0004 60004 T02780261 10311 20272 56011




000
SAGM31 PGUM 190555
MTRGUM
METAR PGUM 190554Z 14006KT 10SM FEW019 SCT033 28/26 A2975 RMK AO2
RAB30E51 SLP065 P0004 60004 T02780261 10311 20272 56011





000
SAGM31 PGUM 190522
MTRGUM
SPECI PGUM 190521Z 12011G18KT 10SM SCT017 31/26 A2975 RMK AO2




000
SAGM31 PGUM 190522
MTRGUM
SPECI PGUM 190521Z 12011G18KT 10SM SCT017 31/26 A2975 RMK AO2





000
SAGM31 PGUM 190455
MTRGUM
METAR PGUM 190454Z 10013G18KT 10SM SCT016 BKN022 30/26 A2975 RMK AO2
SLP065 T03000256





000
SAGM31 PGUM 190455
MTRGUM
METAR PGUM 190454Z 10013G18KT 10SM SCT016 BKN022 30/26 A2975 RMK AO2
SLP065 T03000256




000
SAGM31 PGUM 190431
MTRGUM
SPECI PGUM 190430Z 11011G19KT 10SM BKN018 31/26 A2975 RMK AO2




000
SAGM31 PGUM 190431
MTRGUM
SPECI PGUM 190430Z 11011G19KT 10SM BKN018 31/26 A2975 RMK AO2





000
SAGM31 PGUM 190419
MTRGUM
SPECI PGUM 190418Z 10012G21KT 10SM SCT018 31/25 A2974 RMK AO2




000
SAGM31 PGUM 190419
MTRGUM
SPECI PGUM 190418Z 10012G21KT 10SM SCT018 31/25 A2974 RMK AO2





000
SAGM31 PGUM 190355
MTRGUM
METAR PGUM 190354Z 13010G18KT 10SM BKN018 BKN033 31/26 A2976 RMK AO2
SLP069 T03060256





000
SAGM31 PGUM 190355
MTRGUM
METAR PGUM 190354Z 13010G18KT 10SM BKN018 BKN033 31/26 A2976 RMK AO2
SLP069 T03060256




000
SAGM31 PGUM 190315
MTRGUM
SPECI PGUM 190314Z 10012KT 10SM BKN018 BKN026 31/25 A2977 RMK AO2




000
SAGM31 PGUM 190315
MTRGUM
SPECI PGUM 190314Z 10012KT 10SM BKN018 BKN026 31/25 A2977 RMK AO2





000
SAGM31 PGUM 190255
MTRGUM
METAR PGUM 190254Z 12012G19KT 10SM SCT018 31/25 A2978 RMK AO2 SLP076
60000 T03060250 58015





000
SAGM31 PGUM 190255
MTRGUM
METAR PGUM 190254Z 12012G19KT 10SM SCT018 31/25 A2978 RMK AO2 SLP076
60000 T03060250 58015




000
SAGM31 PGUM 190226
MTRGUM
SPECI PGUM 190225Z 11010G19KT 10SM SCT017 31/26 A2979 RMK AO2




000
SAGM31 PGUM 190226
MTRGUM
SPECI PGUM 190225Z 11010G19KT 10SM SCT017 31/26 A2979 RMK AO2





000
SAGM31 PGUM 190215
MTRGUM
SPECI PGUM 190214Z 11013G20KT 10SM BKN017 31/26 A2979 RMK AO2




000
SAGM31 PGUM 190215
MTRGUM
SPECI PGUM 190214Z 11013G20KT 10SM BKN017 31/26 A2979 RMK AO2





000
SAGM31 PGUM 190155
MTRGUM
METAR PGUM 190154Z 10012G18KT 10SM FEW017 31/26 A2980 RMK AO2 RAE05
SLP082 P0000 T03060256




000
SAGM31 PGUM 190155
MTRGUM
METAR PGUM 190154Z 10012G18KT 10SM FEW017 31/26 A2980 RMK AO2 RAE05
SLP082 P0000 T03060256





000
SAGM31 PGUM 190110
MTRGUM
SPECI PGUM 190109Z 11013G19KT 10SM FEW015 SCT022 BKN035 29/26 A2981
RMK AO2 RAE05 P0000





000
SAGM31 PGUM 190110
MTRGUM
SPECI PGUM 190109Z 11013G19KT 10SM FEW015 SCT022 BKN035 29/26 A2981
RMK AO2 RAE05 P0000




000
SAGM31 PGUM 190055
MTRGUM
METAR PGUM 190054Z 12009G18KT 5SM RA BKN016 BKN022 OVC029 27/24
A2982 RMK AO2 RAB49 SLP088 P0000 T02720239





000
SAGM31 PGUM 190055
MTRGUM
METAR PGUM 190054Z 12009G18KT 5SM RA BKN016 BKN022 OVC029 27/24
A2982 RMK AO2 RAB49 SLP088 P0000 T02720239




000
SAGM31 PGUM 182355
MTRGUM
METAR PGUM 182354Z 09014G19KT 10SM BKN015 BKN022 BKN029 29/25 A2982
RMK AO2 SLP091 60001 T02940250 10294 20261 50006




000
SAGM31 PGUM 182355
MTRGUM
METAR PGUM 182354Z 09014G19KT 10SM BKN015 BKN022 BKN029 29/25 A2982
RMK AO2 SLP091 60001 T02940250 10294 20261 50006





000
SAGM31 PGUM 182332
MTRGUM
SPECI PGUM 182331Z 10010KT 10SM BKN016 BKN022 BKN029 29/26 A2983 RMK
AO2





000
SAGM31 PGUM 182332
MTRGUM
SPECI PGUM 182331Z 10010KT 10SM BKN016 BKN022 BKN029 29/26 A2983 RMK
AO2




000
SAGM31 PGUM 182302
MTRGUM
SPECI PGUM 182301Z 08012G18KT 10SM BKN014 BKN021 29/26 A2983 RMK AO2




000
SAGM31 PGUM 182302
MTRGUM
SPECI PGUM 182301Z 08012G18KT 10SM BKN014 BKN021 29/26 A2983 RMK AO2





000
SAGM31 PGUM 182255
MTRGUM
METAR PGUM 182254Z 09013G18KT 10SM SCT014 OVC021 29/26 A2983 RMK AO2
RAB20E49 SLP093 P0000 T02890261




000
SAGM31 PGUM 182204
MTRGUM
SPECI PGUM 182203Z AUTO 08011KT 10SM SCT016 BKN027 28/26 A2983 RMK
AO2 TSNO




000
SAGM31 PGUM 182204
MTRGUM
SPECI PGUM 182203Z AUTO 08011KT 10SM SCT016 BKN027 28/26 A2983 RMK
AO2 TSNO





000
SAGM31 PGUM 182155
MTRGUM
METAR PGUM 182154Z 09007KT 10SM FEW012 SCT017 SCT023 28/26 A2983 RMK
AO2 SLP092 T02830261





000
SAGM31 PGUM 182120
MTRGUM
SPECI PGUM 182119Z 09008KT 10SM FEW017 28/26 A2981 RMK AO2





000
SAGM31 PGUM 182120
MTRGUM
SPECI PGUM 182119Z 09008KT 10SM FEW017 28/26 A2981 RMK AO2




000
SAGM31 PGUM 182108
MTRGUM
SPECI PGUM 182107Z 08008KT 10SM BKN015 BKN022 27/26 A2981 RMK AO2





000
SAGM31 PGUM 182055
MTRGUM
METAR PGUM 182054Z 08007KT 10SM SCT015 27/26 A2981 RMK AO2 SLP085
60001 T02720256 53010




000
SAGM31 PGUM 182055
MTRGUM
METAR PGUM 182054Z 08007KT 10SM SCT015 27/26 A2981 RMK AO2 SLP085
60001 T02720256 53010





000
SAGM31 PGUM 181955
MTRGUM
METAR PGUM 181954Z 08006KT 10SM FEW020 SCT033 27/25 A2979 RMK AO2
RAB34E48 SLP078 P0001 T02670250




000
SAGM31 PGUM 181955
MTRGUM
METAR PGUM 181954Z 08006KT 10SM FEW020 SCT033 27/25 A2979 RMK AO2
RAB34E48 SLP078 P0001 T02670250





000
SAGM31 PGUM 181946
MTRGUM
SPECI PGUM 181945Z 08008KT 8SM -RA FEW017 SCT025 BKN033 27/25 A2978
RMK AO2 RAB34 P0001





000
SAGM31 PGUM 181946
MTRGUM
SPECI PGUM 181945Z 08008KT 8SM -RA FEW017 SCT025 BKN033 27/25 A2978
RMK AO2 RAB34 P0001




000
SAGM31 PGUM 181923
MTRGUM
SPECI PGUM 181922Z 08006KT 10SM FEW016 BKN022 27/26 A2979 RMK AO2




000
SAGM31 PGUM 181855
MTRGUM
METAR PGUM 181854Z 10006KT 10SM FEW016 27/25 A2978 RMK AO2 SLP077
T02720250





000
SAGM31 PGUM 181855
MTRGUM
METAR PGUM 181854Z 10006KT 10SM FEW016 27/25 A2978 RMK AO2 SLP077
T02720250




000
SAGM31 PGUM 181824
MTRGUM
SPECI PGUM 181823Z 09006KT 10SM SCT016 27/26 A2978 RMK AO2




000
SAGM31 PGUM 181824
MTRGUM
SPECI PGUM 181823Z 09006KT 10SM SCT016 27/26 A2978 RMK AO2





000
SAGM31 PGUM 181816
MTRGUM
SPECI PGUM 181815Z 10008KT 10SM BKN018 27/26 A2978 RMK AO2





000
SAGM31 PGUM 181816
MTRGUM
SPECI PGUM 181815Z 10008KT 10SM BKN018 27/26 A2978 RMK AO2




000
SAGM31 PGUM 181755
MTRGUM
METAR PGUM 181754Z 09006KT 10SM SCT018 27/26 A2978 RMK AO2 RAB08E18
SLP075 P0000 60000 T02670256 10283 20267 58004




000
SAGM31 PGUM 181755
MTRGUM
METAR PGUM 181754Z 09006KT 10SM SCT018 27/26 A2978 RMK AO2 RAB08E18
SLP075 P0000 60000 T02670256 10283 20267 58004





000
SAGM31 PGUM 181723
MTRGUM
SPECI PGUM 181722Z 09007KT 10SM FEW012 SCT027 BKN070 27/25 A2978 RMK
AO2 RAB08E18 P0000




000
SAGM31 PGUM 181723
MTRGUM
SPECI PGUM 181722Z 09007KT 10SM FEW012 SCT027 BKN070 27/25 A2978 RMK
AO2 RAB08E18 P0000





000
SAGM31 PGUM 181655
MTRGUM
METAR PGUM 181654Z 08005KT 10SM SCT012 SCT017 BKN021 27/26 A2978 RMK
AO2 SLP078 T02720256





000
SAGM31 PGUM 181655
MTRGUM
METAR PGUM 181654Z 08005KT 10SM SCT012 SCT017 BKN021 27/26 A2978 RMK
AO2 SLP078 T02720256




000
SAGM31 PGUM 181653
MTRGUM
SPECI PGUM 181652Z 09007KT 10SM FEW012 SCT017 BKN021 27/26 A2978 RMK
AO2




000
SAGM31 PGUM 181555
MTRGUM
METAR PGUM 181554Z 08007KT 10SM FEW034 SCT090 27/26 A2979 RMK AO2
RAB31E44 SLP079 P0000 T02720256




000
SAGM31 PGUM 181555
MTRGUM
METAR PGUM 181554Z 08007KT 10SM FEW034 SCT090 27/26 A2979 RMK AO2
RAB31E44 SLP079 P0000 T02720256





000
SAGM31 PGUM 181455
MTRGUM
METAR PGUM 181454Z 06008KT 10SM CLR 28/26 A2981 RMK AO2 SLP085
T02780256 58009





000
SAGM31 PGUM 181455
MTRGUM
METAR PGUM 181454Z 06008KT 10SM CLR 28/26 A2981 RMK AO2 SLP085
T02780256 58009




000
SAGM31 PGUM 181355
MTRGUM
METAR PGUM 181354Z 06005KT 10SM FEW020 28/25 A2982 RMK AO2 SLP090
T02780250 403220267





000
SAGM31 PGUM 181355
MTRGUM
METAR PGUM 181354Z 06005KT 10SM FEW020 28/25 A2982 RMK AO2 SLP090
T02780250 403220267




000
SAGM31 PGUM 181255
MTRGUM
METAR PGUM 181254Z 06007KT 10SM FEW015 SCT026 SCT035 28/26 A2983 RMK
AO2 SLP094 T02830256




000
SAGM31 PGUM 181255
MTRGUM
METAR PGUM 181254Z 06007KT 10SM FEW015 SCT026 SCT035 28/26 A2983 RMK
AO2 SLP094 T02830256





000
SAGM31 PGUM 181155
MTRGUM
METAR PGUM 181154Z 09006KT 10SM CLR 28/25 A2983 RMK AO2 SLP094
T02830250 10306 20283 51015





000
SAGM31 PGUM 181155
MTRGUM
METAR PGUM 181154Z 09006KT 10SM CLR 28/25 A2983 RMK AO2 SLP094
T02830250 10306 20283 51015




000
SAGM31 PGUM 181055
MTRGUM
METAR PGUM 181054Z 07009KT 10SM FEW016 28/25 A2982 RMK AO2 SLP090
T02830250




000
SAGM31 PGUM 181055
MTRGUM
METAR PGUM 181054Z 07009KT 10SM FEW016 28/25 A2982 RMK AO2 SLP090
T02830250





000
SAGM31 PGUM 180955
MTRGUM
METAR PGUM 180954Z 06010KT 10SM CLR 28/25 A2981 RMK AO2 SLP085
T02830250




000
SAGM31 PGUM 180955
MTRGUM
METAR PGUM 180954Z 06010KT 10SM CLR 28/25 A2981 RMK AO2 SLP085
T02830250





000
SAGM31 PGUM 180855
MTRGUM
METAR PGUM 180854Z 07007KT 10SM CLR 28/25 A2979 RMK AO2 SLP080
T02830250 53012





000
SAGM31 PGUM 180855
MTRGUM
METAR PGUM 180854Z 07007KT 10SM CLR 28/25 A2979 RMK AO2 SLP080
T02830250 53012




000
SAGM31 PGUM 180755
MTRGUM
METAR PGUM 180754Z 06011KT 10SM FEW018 29/24 A2977 RMK AO2 SLP071
T02940244




000
SAGM31 PGUM 180755
MTRGUM
METAR PGUM 180754Z 06011KT 10SM FEW018 29/24 A2977 RMK AO2 SLP071
T02940244





000
SAGM31 PGUM 180655
MTRGUM
METAR PGUM 180654Z 09010KT 10SM FEW017 30/24 A2975 RMK AO2 SLP067
T03000244




000
SAGM31 PGUM 180655
MTRGUM
METAR PGUM 180654Z 09010KT 10SM FEW017 30/24 A2975 RMK AO2 SLP067
T03000244





000
SAGM31 PGUM 180555
MTRGUM
METAR PGUM 180554Z 08011G17KT 10SM FEW020 30/24 A2975 RMK AO2 SLP067
60000 T03000244 10322 20294 56011




000
SAGM31 PGUM 180555
MTRGUM
METAR PGUM 180554Z 08011G17KT 10SM FEW020 30/24 A2975 RMK AO2 SLP067
60000 T03000244 10322 20294 56011





000
SAGM31 PGUM 180455
MTRGUM
METAR PGUM 180454Z 07013G19KT 10SM FEW022 32/24 A2976 RMK AO2
RAB37E46 SLP069 P0000 T03170239





000
SAGM31 PGUM 180455
MTRGUM
METAR PGUM 180454Z 07013G19KT 10SM FEW022 32/24 A2976 RMK AO2
RAB37E46 SLP069 P0000 T03170239




000
SAGM31 PGUM 180355
MTRGUM
METAR PGUM 180354Z 09010G18KT 10SM FEW024 32/24 A2977 RMK AO2 RAE01
SLP073 P0000 T03170239




000
SAGM31 PGUM 180355
MTRGUM
METAR PGUM 180354Z 09010G18KT 10SM FEW024 32/24 A2977 RMK AO2 RAE01
SLP073 P0000 T03170239





000
SAGM31 PGUM 180255
MTRGUM
METAR PGUM 180254Z 07011KT 10SM -RA SCT024 SCT030 30/26 A2979 RMK
AO2 RAB51 SLP078 P0000 60000 T03000256 58018





000
SAGM31 PGUM 180255
MTRGUM
METAR PGUM 180254Z 07011KT 10SM -RA SCT024 SCT030 30/26 A2979 RMK
AO2 RAB51 SLP078 P0000 60000 T03000256 58018




000
SAGM31 PGUM 180219
MTRGUM
SPECI PGUM 180218Z 07011KT 10SM SCT022 SCT028 31/24 A2980 RMK AO2




000
SAGM31 PGUM 180155
MTRGUM
METAR PGUM 180154Z 06012KT 10SM BKN022 31/24 A2981 RMK AO2 SLP085
T03060244





000
SAGM31 PGUM 180155
MTRGUM
METAR PGUM 180154Z 06012KT 10SM BKN022 31/24 A2981 RMK AO2 SLP085
T03060244




000
SAGM31 PGUM 180131
MTRGUM
SPECI PGUM 180130Z 07011KT 10SM BKN022 30/24 A2981 RMK AO2





000
SAGM31 PGUM 180131
MTRGUM
SPECI PGUM 180130Z 07011KT 10SM BKN022 30/24 A2981 RMK AO2




000
SAGM31 PGUM 180105
MTRGUM
SPECI PGUM 180104Z 08011G18KT 10SM SCT022 SCT033 31/24 A2982 RMK AO2




000
SAGM31 PGUM 180105
MTRGUM
SPECI PGUM 180104Z 08011G18KT 10SM SCT022 SCT033 31/24 A2982 RMK AO2





000
SAGM31 PGUM 180055
MTRGUM
METAR PGUM 180054Z 08013G18KT 10SM BKN022 31/24 A2983 RMK AO2 SLP092
T03060244




000
SAGM31 PGUM 180055
MTRGUM
METAR PGUM 180054Z 08013G18KT 10SM BKN022 31/24 A2983 RMK AO2 SLP092
T03060244





000
SAGM31 PGUM 172355
MTRGUM
METAR PGUM 172354Z 08012KT 10SM SCT018 BKN024 29/24 A2984 RMK AO2
SLP097 60000 T02940244 10300 20267 51012




000
SAGM31 PGUM 172355
MTRGUM
METAR PGUM 172354Z 08012KT 10SM SCT018 BKN024 29/24 A2984 RMK AO2
SLP097 60000 T02940244 10300 20267 51012





000
SAGM31 PGUM 172325
MTRGUM
SPECI PGUM 172324Z 09011KT 10SM BKN020 BKN027 29/25 A2985 RMK AO2




000
SAGM31 PGUM 172325
MTRGUM
SPECI PGUM 172324Z 09011KT 10SM BKN020 BKN027 29/25 A2985 RMK AO2





000
SAGM31 PGUM 172255
MTRGUM
METAR PGUM 172254Z 07011KT 10SM FEW017 SCT033 SCT040 28/26 A2984 RMK
AO2 SLP096 T02830256




000
SAGM31 PGUM 172255
MTRGUM
METAR PGUM 172254Z 07011KT 10SM FEW017 SCT033 SCT040 28/26 A2984 RMK
AO2 SLP096 T02830256





000
SAGM31 PGUM 172155
MTRGUM
METAR PGUM 172154Z 08008KT 10SM CLR 28/25 A2983 RMK AO2 SLP093
T02780250




000
SAGM31 PGUM 172155
MTRGUM
METAR PGUM 172154Z 08008KT 10SM CLR 28/25 A2983 RMK AO2 SLP093
T02780250





000
SAGM31 PGUM 172055
MTRGUM
METAR PGUM 172054Z 06006KT 10SM FEW013 SCT020 SCT029 27/26 A2981 RMK
AO2 RAB44E54 SLP085 P0000 60000 T02670256 51011





000
SAGM31 PGUM 172055
MTRGUM
METAR PGUM 172054Z 06006KT 10SM FEW013 SCT020 SCT029 27/26 A2981 RMK
AO2 RAB44E54 SLP085 P0000 60000 T02670256 51011




000
SAGM31 PGUM 172053
MTRGUM
SPECI PGUM 172052Z 06005KT 7SM -RA SCT015 SCT020 BKN029 27/26 A2981
RMK AO2 RAB44 P0000





000
SAGM31 PGUM 172053
MTRGUM
SPECI PGUM 172052Z 06005KT 7SM -RA SCT015 SCT020 BKN029 27/26 A2981
RMK AO2 RAB44 P0000




000
SAGM31 PGUM 171955
MTRGUM
METAR PGUM 171954Z 06009KT 10SM CLR 27/25 A2979 RMK AO2 SLP079
T02670250




000
SAGM31 PGUM 171955
MTRGUM
METAR PGUM 171954Z 06009KT 10SM CLR 27/25 A2979 RMK AO2 SLP079
T02670250





000
SAGM31 PGUM 171855
MTRGUM
METAR PGUM 171854Z 07010KT 10SM CLR 27/25 A2977 RMK AO2 SLP074
T02670250




000
SAGM31 PGUM 171855
MTRGUM
METAR PGUM 171854Z 07010KT 10SM CLR 27/25 A2977 RMK AO2 SLP074
T02670250





000
SAGM31 PGUM 171755
MTRGUM
METAR PGUM 171754Z 07011KT 10SM FEW016 27/25 A2977 RMK AO2 SLP072
60000 T02670250 10272 20267 56020




000
SAGM31 PGUM 171755
MTRGUM
METAR PGUM 171754Z 07011KT 10SM FEW016 27/25 A2977 RMK AO2 SLP072
60000 T02670250 10272 20267 56020





000
SAGM31 PGUM 171655
MTRGUM
METAR PGUM 171654Z 06009KT 10SM FEW030 27/25 A2978 RMK AO2 RAB38E47
SLP075 P0000 T02670250




    US Dept of Commerce
    National Oceanic and Atmospheric Administration
    National Weather Service
    1325 East West Highway
    Silver Spring, MD 20910
    Page Author: NWS Internet Services Team
Disclaimer
Information Quality
Credits
Glossary
Privacy Policy
Freedom of Information Act (FOIA)
About Us
Career Opportunities